sensor_id;sensor_type;location;lat;lon;timestamp;P1;durP1;ratioP1;P2;durP2;ratioP2
8791;SDS011;4432;50.890;4.744;2022-07-01T00:01:43;2.77;;;1.90;;
8791;SDS011;4432;50.890;4.744;2022-07-01T00:04:10;2.90;;;2.20;;
8791;SDS011;4432;50.890;4.744;2022-07-01T00:06:36;3.83;;;2.30;;
8791;SDS011;4432;50.890;4.744;2022-07-01T00:09:02;3.40;;;2.67;;
8791;SDS011;4432;50.890;4.744;2022-07-01T00:11:30;2.77;;;2.20;;
8791;SDS011;4432;50.890;4.744;2022-07-01T00:13:56;2.43;;;2.10;;
8791;SDS011;4432;50.890;4.744;2022-07-01T00:16:22;2.07;;;1.87;;
8791;SDS011;4432;50.890;4.744;2022-07-01T00:18:48;2.90;;;2.27;;
8791;SDS011;4432;50.890;4.744;2022-07-01T00:21:14;3.40;;;1.97;;
8791;SDS011;4432;50.890;4.744;2022-07-01T00:23:41;6.97;;;2.23;;
8791;SDS011;4432;50.890;4.744;2022-07-01T00:26:07;2.47;;;2.27;;
8791;SDS011;4432;50.890;4.744;2022-07-01T00:28:33;2.70;;;1.70;;
8791;SDS011;4432;50.890;4.744;2022-07-01T00:30:59;3.27;;;2.10;;
8791;SDS011;4432;50.890;4.744;2022-07-01T00:33:24;2.60;;;2.13;;
8791;SDS011;4432;50.890;4.744;2022-07-01T00:35:50;3.30;;;2.30;;
8791;SDS011;4432;50.890;4.744;2022-07-01T00:38:17;2.37;;;2.03;;
8791;SDS011;4432;50.890;4.744;2022-07-01T00:40:43;2.73;;;2.20;;
8791;SDS011;4432;50.890;4.744;2022-07-01T00:43:08;2.83;;;1.87;;
8791;SDS011;4432;50.890;4.744;2022-07-01T00:45:34;5.97;;;2.40;;
8791;SDS011;4432;50.890;4.744;2022-07-01T00:48:00;3.93;;;2.20;;
8791;SDS011;4432;50.890;4.744;2022-07-01T00:50:26;3.17;;;2.20;;
8791;SDS011;4432;50.890;4.744;2022-07-01T00:52:52;3.80;;;2.37;;
8791;SDS011;4432;50.890;4.744;2022-07-01T00:55:18;3.27;;;2.17;;
8791;SDS011;4432;50.890;4.744;2022-07-01T00:57:44;5.60;;;2.83;;
8791;SDS011;4432;50.890;4.744;2022-07-01T01:00:14;2.57;;;2.20;;
8791;SDS011;4432;50.890;4.744;2022-07-01T01:02:48;6.27;;;2.40;;
8791;SDS011;4432;50.890;4.744;2022-07-01T01:05:14;5.10;;;2.70;;
8791;SDS011;4432;50.890;4.744;2022-07-01T01:07:43;3.93;;;2.87;;
8791;SDS011;4432;50.890;4.744;2022-07-01T01:10:09;4.27;;;2.47;;
8791;SDS011;4432;50.890;4.744;2022-07-01T01:12:35;4.77;;;3.00;;
8791;SDS011;4432;50.890;4.744;2022-07-01T01:15:01;4.27;;;3.00;;
8791;SDS011;4432;50.890;4.744;2022-07-01T01:17:27;3.37;;;2.60;;
8791;SDS011;4432;50.890;4.744;2022-07-01T01:19:53;4.47;;;2.60;;
8791;SDS011;4432;50.890;4.744;2022-07-01T01:22:19;3.53;;;2.83;;
8791;SDS011;4432;50.890;4.744;2022-07-01T01:24:45;3.97;;;2.77;;
8791;SDS011;4432;50.890;4.744;2022-07-01T01:27:14;4.07;;;3.13;;
8791;SDS011;4432;50.890;4.744;2022-07-01T01:29:41;5.70;;;2.87;;
8791;SDS011;4432;50.890;4.744;2022-07-01T01:32:08;7.17;;;2.77;;
8791;SDS011;4432;50.890;4.744;2022-07-01T01:34:35;3.73;;;3.00;;
8791;SDS011;4432;50.890;4.744;2022-07-01T01:37:02;5.90;;;3.23;;
8791;SDS011;4432;50.890;4.744;2022-07-01T01:39:29;5.23;;;3.20;;
8791;SDS011;4432;50.890;4.744;2022-07-01T01:41:55;9.13;;;2.90;;
8791;SDS011;4432;50.890;4.744;2022-07-01T01:44:21;6.23;;;3.27;;
8791;SDS011;4432;50.890;4.744;2022-07-01T01:46:46;5.03;;;3.10;;
8791;SDS011;4432;50.890;4.744;2022-07-01T01:49:12;4.07;;;2.50;;
8791;SDS011;4432;50.890;4.744;2022-07-01T01:51:38;4.30;;;2.83;;
8791;SDS011;4432;50.890;4.744;2022-07-01T01:54:04;6.37;;;3.23;;
8791;SDS011;4432;50.890;4.744;2022-07-01T01:56:30;6.50;;;3.77;;
8791;SDS011;4432;50.890;4.744;2022-07-01T01:58:56;5.43;;;3.03;;
8791;SDS011;4432;50.890;4.744;2022-07-01T02:01:23;5.43;;;3.77;;
8791;SDS011;4432;50.890;4.744;2022-07-01T02:03:50;4.67;;;3.03;;
8791;SDS011;4432;50.890;4.744;2022-07-01T02:06:16;5.10;;;3.30;;
8791;SDS011;4432;50.890;4.744;2022-07-01T02:08:43;6.50;;;3.83;;
8791;SDS011;4432;50.890;4.744;2022-07-01T02:11:09;3.77;;;3.37;;
8791;SDS011;4432;50.890;4.744;2022-07-01T02:13:35;4.13;;;3.50;;
8791;SDS011;4432;50.890;4.744;2022-07-01T02:16:02;5.10;;;3.40;;
8791;SDS011;4432;50.890;4.744;2022-07-01T02:18:29;8.73;;;3.87;;
8791;SDS011;4432;50.890;4.744;2022-07-01T02:20:57;5.93;;;3.50;;
8791;SDS011;4432;50.890;4.744;2022-07-01T02:23:26;6.33;;;3.73;;
8791;SDS011;4432;50.890;4.744;2022-07-01T02:25:52;4.00;;;3.40;;
8791;SDS011;4432;50.890;4.744;2022-07-01T02:28:18;6.50;;;3.73;;
8791;SDS011;4432;50.890;4.744;2022-07-01T02:30:43;5.30;;;3.50;;
8791;SDS011;4432;50.890;4.744;2022-07-01T02:33:09;3.63;;;3.23;;
8791;SDS011;4432;50.890;4.744;2022-07-01T02:35:35;10.83;;;3.93;;
8791;SDS011;4432;50.890;4.744;2022-07-01T02:38:03;4.13;;;3.23;;
8791;SDS011;4432;50.890;4.744;2022-07-01T02:40:29;10.13;;;4.07;;
8791;SDS011;4432;50.890;4.744;2022-07-01T02:42:55;8.73;;;3.93;;
8791;SDS011;4432;50.890;4.744;2022-07-01T02:45:21;7.77;;;3.50;;
8791;SDS011;4432;50.890;4.744;2022-07-01T02:47:47;6.20;;;3.40;;
8791;SDS011;4432;50.890;4.744;2022-07-01T02:50:13;5.47;;;3.87;;
8791;SDS011;4432;50.890;4.744;2022-07-01T02:52:40;7.67;;;3.80;;
8791;SDS011;4432;50.890;4.744;2022-07-01T02:55:07;8.43;;;3.87;;
8791;SDS011;4432;50.890;4.744;2022-07-01T02:57:34;4.77;;;3.53;;
8791;SDS011;4432;50.890;4.744;2022-07-01T03:00:00;5.53;;;3.40;;
8791;SDS011;4432;50.890;4.744;2022-07-01T03:02:31;4.83;;;3.70;;
8791;SDS011;4432;50.890;4.744;2022-07-01T03:04:57;6.03;;;4.40;;
8791;SDS011;4432;50.890;4.744;2022-07-01T03:07:23;4.13;;;3.17;;
8791;SDS011;4432;50.890;4.744;2022-07-01T03:09:49;15.50;;;4.17;;
8791;SDS011;4432;50.890;4.744;2022-07-01T03:12:16;9.87;;;4.20;;
8791;SDS011;4432;50.890;4.744;2022-07-01T03:14:56;7.40;;;3.37;;
8791;SDS011;4432;50.890;4.744;2022-07-01T03:17:24;8.67;;;3.93;;
8791;SDS011;4432;50.890;4.744;2022-07-01T03:19:51;6.23;;;3.63;;
8791;SDS011;4432;50.890;4.744;2022-07-01T03:22:18;6.57;;;3.60;;
8791;SDS011;4432;50.890;4.744;2022-07-01T03:24:48;6.50;;;3.63;;
8791;SDS011;4432;50.890;4.744;2022-07-01T03:27:15;6.23;;;3.30;;
8791;SDS011;4432;50.890;4.744;2022-07-01T03:29:42;5.83;;;3.47;;
8791;SDS011;4432;50.890;4.744;2022-07-01T03:32:09;6.17;;;3.80;;
8791;SDS011;4432;50.890;4.744;2022-07-01T03:34:36;7.30;;;3.43;;
8791;SDS011;4432;50.890;4.744;2022-07-01T03:37:03;7.23;;;4.23;;
8791;SDS011;4432;50.890;4.744;2022-07-01T03:39:33;5.87;;;3.90;;
8791;SDS011;4432;50.890;4.744;2022-07-01T03:42:00;7.70;;;3.70;;
8791;SDS011;4432;50.890;4.744;2022-07-01T03:44:26;9.07;;;4.17;;
8791;SDS011;4432;50.890;4.744;2022-07-01T03:46:52;10.40;;;4.27;;
8791;SDS011;4432;50.890;4.744;2022-07-01T03:49:18;8.30;;;4.33;;
8791;SDS011;4432;50.890;4.744;2022-07-01T03:51:44;12.93;;;4.37;;
8791;SDS011;4432;50.890;4.744;2022-07-01T03:54:10;6.03;;;3.70;;
8791;SDS011;4432;50.890;4.744;2022-07-01T03:56:54;10.13;;;4.03;;
8791;SDS011;4432;50.890;4.744;2022-07-01T03:59:46;8.33;;;4.10;;
8791;SDS011;4432;50.890;4.744;2022-07-01T04:02:12;9.50;;;4.27;;
8791;SDS011;4432;50.890;4.744;2022-07-01T04:04:37;6.33;;;3.83;;
8791;SDS011;4432;50.890;4.744;2022-07-01T04:07:04;10.00;;;3.87;;
8791;SDS011;4432;50.890;4.744;2022-07-01T04:09:31;5.73;;;3.97;;
8791;SDS011;4432;50.890;4.744;2022-07-01T04:11:57;5.60;;;3.67;;
8791;SDS011;4432;50.890;4.744;2022-07-01T04:14:23;11.23;;;4.20;;
8791;SDS011;4432;50.890;4.744;2022-07-01T04:16:49;8.80;;;4.50;;
8791;SDS011;4432;50.890;4.744;2022-07-01T04:19:16;6.17;;;4.30;;
8791;SDS011;4432;50.890;4.744;2022-07-01T04:21:42;9.60;;;3.90;;
8791;SDS011;4432;50.890;4.744;2022-07-01T04:24:37;7.17;;;4.30;;
8791;SDS011;4432;50.890;4.744;2022-07-01T04:27:03;4.23;;;3.27;;
8791;SDS011;4432;50.890;4.744;2022-07-01T04:29:29;5.50;;;3.87;;
8791;SDS011;4432;50.890;4.744;2022-07-01T04:31:55;10.17;;;4.00;;
8791;SDS011;4432;50.890;4.744;2022-07-01T04:34:22;4.93;;;3.40;;
8791;SDS011;4432;50.890;4.744;2022-07-01T04:36:49;7.47;;;4.20;;
8791;SDS011;4432;50.890;4.744;2022-07-01T04:39:15;9.93;;;4.57;;
8791;SDS011;4432;50.890;4.744;2022-07-01T04:41:40;6.80;;;3.50;;
8791;SDS011;4432;50.890;4.744;2022-07-01T04:44:25;6.33;;;3.63;;
8791;SDS011;4432;50.890;4.744;2022-07-01T04:47:01;10.90;;;4.47;;
8791;SDS011;4432;50.890;4.744;2022-07-01T04:49:28;7.53;;;4.03;;
8791;SDS011;4432;50.890;4.744;2022-07-01T04:51:54;6.00;;;3.93;;
8791;SDS011;4432;50.890;4.744;2022-07-01T04:54:20;8.50;;;4.10;;
8791;SDS011;4432;50.890;4.744;2022-07-01T04:56:46;6.57;;;3.30;;
8791;SDS011;4432;50.890;4.744;2022-07-01T04:59:13;7.93;;;3.73;;
8791;SDS011;4432;50.890;4.744;2022-07-01T05:01:42;5.63;;;4.00;;
8791;SDS011;4432;50.890;4.744;2022-07-01T05:04:09;5.77;;;3.53;;
8791;SDS011;4432;50.890;4.744;2022-07-01T05:06:35;9.03;;;4.13;;
8791;SDS011;4432;50.890;4.744;2022-07-01T05:09:01;11.63;;;4.10;;
8791;SDS011;4432;50.890;4.744;2022-07-01T05:11:27;8.30;;;3.70;;
8791;SDS011;4432;50.890;4.744;2022-07-01T05:13:53;9.73;;;3.87;;
8791;SDS011;4432;50.890;4.744;2022-07-01T05:16:19;6.27;;;3.40;;
8791;SDS011;4432;50.890;4.744;2022-07-01T05:18:45;8.60;;;4.07;;
8791;SDS011;4432;50.890;4.744;2022-07-01T05:21:29;9.63;;;4.43;;
8791;SDS011;4432;50.890;4.744;2022-07-01T05:24:13;8.47;;;3.70;;
8791;SDS011;4432;50.890;4.744;2022-07-01T05:26:39;7.17;;;4.10;;
8791;SDS011;4432;50.890;4.744;2022-07-01T05:29:05;8.80;;;4.00;;
8791;SDS011;4432;50.890;4.744;2022-07-01T05:31:31;9.47;;;3.77;;
8791;SDS011;4432;50.890;4.744;2022-07-01T05:33:57;7.67;;;3.93;;
8791;SDS011;4432;50.890;4.744;2022-07-01T05:36:22;10.40;;;3.37;;
8791;SDS011;4432;50.890;4.744;2022-07-01T05:38:48;7.70;;;3.53;;
8791;SDS011;4432;50.890;4.744;2022-07-01T05:41:14;6.07;;;3.40;;
8791;SDS011;4432;50.890;4.744;2022-07-01T05:43:40;8.23;;;3.70;;
8791;SDS011;4432;50.890;4.744;2022-07-01T05:46:06;5.53;;;3.53;;
8791;SDS011;4432;50.890;4.744;2022-07-01T05:48:32;9.53;;;3.77;;
8791;SDS011;4432;50.890;4.744;2022-07-01T05:50:58;5.87;;;3.63;;
8791;SDS011;4432;50.890;4.744;2022-07-01T05:53:23;6.10;;;3.13;;
8791;SDS011;4432;50.890;4.744;2022-07-01T05:55:49;9.20;;;3.03;;
8791;SDS011;4432;50.890;4.744;2022-07-01T05:58:15;6.83;;;2.70;;
8791;SDS011;4432;50.890;4.744;2022-07-01T06:00:41;6.13;;;3.30;;
8791;SDS011;4432;50.890;4.744;2022-07-01T06:03:11;6.47;;;3.23;;
8791;SDS011;4432;50.890;4.744;2022-07-01T06:05:39;6.77;;;3.43;;
8791;SDS011;4432;50.890;4.744;2022-07-01T06:08:05;8.03;;;3.20;;
8791;SDS011;4432;50.890;4.744;2022-07-01T06:10:32;6.13;;;3.40;;
8791;SDS011;4432;50.890;4.744;2022-07-01T06:12:58;4.10;;;2.70;;
8791;SDS011;4432;50.890;4.744;2022-07-01T06:15:24;5.17;;;3.17;;
8791;SDS011;4432;50.890;4.744;2022-07-01T06:17:50;5.47;;;3.23;;
8791;SDS011;4432;50.890;4.744;2022-07-01T06:20:17;3.77;;;2.50;;
8791;SDS011;4432;50.890;4.744;2022-07-01T06:22:43;4.43;;;2.77;;
8791;SDS011;4432;50.890;4.744;2022-07-01T06:25:09;4.07;;;2.83;;
8791;SDS011;4432;50.890;4.744;2022-07-01T06:27:42;4.13;;;2.80;;
8791;SDS011;4432;50.890;4.744;2022-07-01T06:30:09;4.87;;;2.80;;
8791;SDS011;4432;50.890;4.744;2022-07-01T06:32:35;4.50;;;2.57;;
8791;SDS011;4432;50.890;4.744;2022-07-01T06:35:02;7.17;;;2.70;;
8791;SDS011;4432;50.890;4.744;2022-07-01T06:37:28;7.20;;;2.70;;
8791;SDS011;4432;50.890;4.744;2022-07-01T06:39:56;6.73;;;2.80;;
8791;SDS011;4432;50.890;4.744;2022-07-01T06:42:22;3.13;;;2.50;;
8791;SDS011;4432;50.890;4.744;2022-07-01T06:44:48;4.80;;;2.60;;
8791;SDS011;4432;50.890;4.744;2022-07-01T06:47:14;3.07;;;2.03;;
8791;SDS011;4432;50.890;4.744;2022-07-01T06:49:39;3.67;;;2.50;;
8791;SDS011;4432;50.890;4.744;2022-07-01T06:52:05;3.33;;;2.80;;
8791;SDS011;4432;50.890;4.744;2022-07-01T06:54:31;9.33;;;2.23;;
8791;SDS011;4432;50.890;4.744;2022-07-01T06:56:57;4.90;;;2.47;;
8791;SDS011;4432;50.890;4.744;2022-07-01T06:59:23;2.07;;;1.77;;
8791;SDS011;4432;50.890;4.744;2022-07-01T07:01:49;5.87;;;2.17;;
8791;SDS011;4432;50.890;4.744;2022-07-01T07:04:15;5.63;;;2.43;;
8791;SDS011;4432;50.890;4.744;2022-07-01T07:06:41;2.10;;;1.90;;
8791;SDS011;4432;50.890;4.744;2022-07-01T07:09:07;8.33;;;2.00;;
8791;SDS011;4432;50.890;4.744;2022-07-01T07:11:33;5.17;;;1.90;;
8791;SDS011;4432;50.890;4.744;2022-07-01T07:13:59;2.23;;;1.67;;
8791;SDS011;4432;50.890;4.744;2022-07-01T07:16:24;3.47;;;1.90;;
8791;SDS011;4432;50.890;4.744;2022-07-01T07:18:51;3.40;;;1.67;;
8791;SDS011;4432;50.890;4.744;2022-07-01T07:21:17;2.30;;;1.67;;
8791;SDS011;4432;50.890;4.744;2022-07-01T07:23:43;2.80;;;1.50;;
8791;SDS011;4432;50.890;4.744;2022-07-01T07:26:09;5.33;;;2.23;;
8791;SDS011;4432;50.890;4.744;2022-07-01T07:28:35;2.53;;;1.70;;
8791;SDS011;4432;50.890;4.744;2022-07-01T07:31:01;3.23;;;1.37;;
8791;SDS011;4432;50.890;4.744;2022-07-01T07:33:26;1.87;;;1.30;;
8791;SDS011;4432;50.890;4.744;2022-07-01T07:35:52;1.20;;;1.10;;
8791;SDS011;4432;50.890;4.744;2022-07-01T07:38:18;1.50;;;1.10;;
8791;SDS011;4432;50.890;4.744;2022-07-01T07:40:44;4.83;;;1.30;;
8791;SDS011;4432;50.890;4.744;2022-07-01T07:43:10;1.27;;;1.17;;
8791;SDS011;4432;50.890;4.744;2022-07-01T07:45:35;1.60;;;1.10;;
8791;SDS011;4432;50.890;4.744;2022-07-01T07:48:01;2.63;;;1.23;;
8791;SDS011;4432;50.890;4.744;2022-07-01T07:50:27;2.67;;;1.07;;
8791;SDS011;4432;50.890;4.744;2022-07-01T07:52:53;1.50;;;1.03;;
8791;SDS011;4432;50.890;4.744;2022-07-01T07:55:19;6.53;;;0.97;;
8791;SDS011;4432;50.890;4.744;2022-07-01T07:57:45;1.33;;;1.10;;
8791;SDS011;4432;50.890;4.744;2022-07-01T08:00:11;3.70;;;1.33;;
8791;SDS011;4432;50.890;4.744;2022-07-01T08:02:38;2.47;;;1.17;;
8791;SDS011;4432;50.890;4.744;2022-07-01T08:05:05;4.33;;;0.90;;
8791;SDS011;4432;50.890;4.744;2022-07-01T08:07:38;6.00;;;1.20;;
8791;SDS011;4432;50.890;4.744;2022-07-01T08:10:06;0.83;;;0.83;;
8791;SDS011;4432;50.890;4.744;2022-07-01T08:12:33;2.40;;;1.00;;
8791;SDS011;4432;50.890;4.744;2022-07-01T08:14:59;2.80;;;1.30;;
8791;SDS011;4432;50.890;4.744;2022-07-01T08:17:25;3.97;;;0.80;;
8791;SDS011;4432;50.890;4.744;2022-07-01T08:19:51;5.63;;;1.17;;
8791;SDS011;4432;50.890;4.744;2022-07-01T08:22:17;0.90;;;0.90;;
8791;SDS011;4432;50.890;4.744;2022-07-01T08:24:43;0.60;;;0.60;;
8791;SDS011;4432;50.890;4.744;2022-07-01T08:27:09;2.50;;;1.37;;
8791;SDS011;4432;50.890;4.744;2022-07-01T08:29:34;1.80;;;0.90;;
8791;SDS011;4432;50.890;4.744;2022-07-01T08:32:00;3.67;;;0.93;;
8791;SDS011;4432;50.890;4.744;2022-07-01T08:34:26;5.23;;;1.13;;
8791;SDS011;4432;50.890;4.744;2022-07-01T08:36:52;1.10;;;1.00;;
8791;SDS011;4432;50.890;4.744;2022-07-01T08:39:17;0.80;;;0.80;;
8791;SDS011;4432;50.890;4.744;2022-07-01T08:41:43;0.80;;;0.80;;
8791;SDS011;4432;50.890;4.744;2022-07-01T08:44:09;1.87;;;0.80;;
8791;SDS011;4432;50.890;4.744;2022-07-01T08:46:35;0.83;;;0.80;;
8791;SDS011;4432;50.890;4.744;2022-07-01T08:49:02;1.20;;;0.83;;
8791;SDS011;4432;50.890;4.744;2022-07-01T08:51:28;2.43;;;0.83;;
8791;SDS011;4432;50.890;4.744;2022-07-01T08:53:54;3.83;;;1.03;;
8791;SDS011;4432;50.890;4.744;2022-07-01T08:56:19;1.67;;;0.80;;
8791;SDS011;4432;50.890;4.744;2022-07-01T08:59:04;0.80;;;0.80;;
8791;SDS011;4432;50.890;4.744;2022-07-01T09:01:32;1.73;;;1.07;;
8791;SDS011;4432;50.890;4.744;2022-07-01T09:04:14;1.93;;;1.00;;
8791;SDS011;4432;50.890;4.744;2022-07-01T09:06:41;5.60;;;0.90;;
8791;SDS011;4432;50.890;4.744;2022-07-01T09:09:12;1.80;;;1.07;;
8791;SDS011;4432;50.890;4.744;2022-07-01T09:14:18;1.90;;;1.03;;
8791;SDS011;4432;50.890;4.744;2022-07-01T09:16:49;2.70;;;0.97;;
8791;SDS011;4432;50.890;4.744;2022-07-01T09:19:17;1.40;;;1.00;;
8791;SDS011;4432;50.890;4.744;2022-07-01T09:21:48;1.80;;;0.90;;
8791;SDS011;4432;50.890;4.744;2022-07-01T09:24:28;5.87;;;0.93;;
8791;SDS011;4432;50.890;4.744;2022-07-01T09:27:02;0.93;;;0.80;;
8791;SDS011;4432;50.890;4.744;2022-07-01T09:29:37;0.93;;;0.83;;
8791;SDS011;4432;50.890;4.744;2022-07-01T09:32:05;5.30;;;0.87;;
8791;SDS011;4432;50.890;4.744;2022-07-01T09:34:51;1.00;;;1.00;;
8791;SDS011;4432;50.890;4.744;2022-07-01T09:37:19;1.03;;;1.03;;
8791;SDS011;4432;50.890;4.744;2022-07-01T09:39:53;1.90;;;1.27;;
8791;SDS011;4432;50.890;4.744;2022-07-01T09:42:21;0.93;;;0.90;;
8791;SDS011;4432;50.890;4.744;2022-07-01T09:45:00;1.13;;;1.03;;
8791;SDS011;4432;50.890;4.744;2022-07-01T09:47:35;1.80;;;1.03;;
8791;SDS011;4432;50.890;4.744;2022-07-01T09:50:06;1.97;;;1.10;;
8791;SDS011;4432;50.890;4.744;2022-07-01T09:52:33;1.20;;;1.10;;
8791;SDS011;4432;50.890;4.744;2022-07-01T09:54:59;2.07;;;1.10;;
8791;SDS011;4432;50.890;4.744;2022-07-01T09:57:25;2.83;;;1.60;;
8791;SDS011;4432;50.890;4.744;2022-07-01T09:59:51;1.60;;;1.50;;
8791;SDS011;4432;50.890;4.744;2022-07-01T10:02:18;2.23;;;1.43;;
8791;SDS011;4432;50.890;4.744;2022-07-01T10:04:49;5.07;;;1.70;;
8791;SDS011;4432;50.890;4.744;2022-07-01T10:07:38;1.87;;;1.40;;
8791;SDS011;4432;50.890;4.744;2022-07-01T10:10:21;3.87;;;1.67;;
8791;SDS011;4432;50.890;4.744;2022-07-01T10:13:07;2.40;;;1.60;;
8791;SDS011;4432;50.890;4.744;2022-07-01T10:15:37;4.23;;;1.80;;
8791;SDS011;4432;50.890;4.744;2022-07-01T10:18:06;2.70;;;1.70;;
8791;SDS011;4432;50.890;4.744;2022-07-01T10:20:46;3.63;;;1.40;;
8791;SDS011;4432;50.890;4.744;2022-07-01T10:23:13;3.40;;;1.40;;
8791;SDS011;4432;50.890;4.744;2022-07-01T10:25:45;2.67;;;1.50;;
8791;SDS011;4432;50.890;4.744;2022-07-01T10:30:51;5.10;;;1.27;;
8791;SDS011;4432;50.890;4.744;2022-07-01T10:33:27;2.20;;;1.13;;
8791;SDS011;4432;50.890;4.744;2022-07-01T10:36:06;1.10;;;1.00;;
8791;SDS011;4432;50.890;4.744;2022-07-01T10:38:32;5.07;;;1.30;;
8791;SDS011;4432;50.890;4.744;2022-07-01T10:40:58;1.17;;;1.13;;
8791;SDS011;4432;50.890;4.744;2022-07-01T10:43:37;1.50;;;1.20;;
8791;SDS011;4432;50.890;4.744;2022-07-01T10:46:06;1.60;;;1.50;;
8791;SDS011;4432;50.890;4.744;2022-07-01T10:48:33;1.30;;;1.07;;
8791;SDS011;4432;50.890;4.744;2022-07-01T10:50:59;0.80;;;0.80;;
8791;SDS011;4432;50.890;4.744;2022-07-01T10:53:30;1.93;;;1.40;;
8791;SDS011;4432;50.890;4.744;2022-07-01T10:56:14;0.97;;;0.87;;
8791;SDS011;4432;50.890;4.744;2022-07-01T10:58:42;2.97;;;1.10;;
8791;SDS011;4432;50.890;4.744;2022-07-01T11:01:08;1.40;;;1.30;;
8791;SDS011;4432;50.890;4.744;2022-07-01T11:03:34;2.97;;;1.30;;
8791;SDS011;4432;50.890;4.744;2022-07-01T11:06:02;1.30;;;1.00;;
8791;SDS011;4432;50.890;4.744;2022-07-01T11:08:27;1.20;;;1.13;;
8791;SDS011;4432;50.890;4.744;2022-07-01T11:10:57;1.60;;;1.40;;
8791;SDS011;4432;50.890;4.744;2022-07-01T11:13:26;1.97;;;1.47;;
8791;SDS011;4432;50.890;4.744;2022-07-01T11:15:53;1.27;;;1.17;;
8791;SDS011;4432;50.890;4.744;2022-07-01T11:18:19;1.00;;;1.00;;
8791;SDS011;4432;50.890;4.744;2022-07-01T11:20:46;2.83;;;1.10;;
8791;SDS011;4432;50.890;4.744;2022-07-01T11:23:12;3.90;;;1.40;;
8791;SDS011;4432;50.890;4.744;2022-07-01T11:25:38;1.43;;;1.10;;
8791;SDS011;4432;50.890;4.744;2022-07-01T11:28:04;1.37;;;1.27;;
8791;SDS011;4432;50.890;4.744;2022-07-01T11:30:30;2.00;;;1.13;;
8791;SDS011;4432;50.890;4.744;2022-07-01T11:32:57;1.40;;;1.30;;
8791;SDS011;4432;50.890;4.744;2022-07-01T11:38:16;1.30;;;1.20;;
8791;SDS011;4432;50.890;4.744;2022-07-01T11:41:03;1.60;;;1.20;;
8791;SDS011;4432;50.890;4.744;2022-07-01T11:43:33;1.50;;;1.10;;
8791;SDS011;4432;50.890;4.744;2022-07-01T11:46:02;1.73;;;1.30;;
8791;SDS011;4432;50.890;4.744;2022-07-01T11:51:05;1.47;;;1.23;;
8791;SDS011;4432;50.890;4.744;2022-07-01T11:53:35;1.40;;;1.30;;
8791;SDS011;4432;50.890;4.744;2022-07-01T11:56:02;2.73;;;1.53;;
8791;SDS011;4432;50.890;4.744;2022-07-01T12:01:30;1.20;;;1.10;;
8791;SDS011;4432;50.890;4.744;2022-07-01T12:03:56;2.33;;;1.40;;
8791;SDS011;4432;50.890;4.744;2022-07-01T12:06:24;1.07;;;1.03;;
8791;SDS011;4432;50.890;4.744;2022-07-01T12:08:51;1.67;;;1.20;;
8791;SDS011;4432;50.890;4.744;2022-07-01T12:11:19;1.50;;;1.40;;
8791;SDS011;4432;50.890;4.744;2022-07-01T12:13:47;1.17;;;1.03;;
8791;SDS011;4432;50.890;4.744;2022-07-01T12:16:13;2.73;;;1.27;;
8791;SDS011;4432;50.890;4.744;2022-07-01T12:18:49;1.33;;;1.20;;
8791;SDS011;4432;50.890;4.744;2022-07-01T12:21:26;1.80;;;1.00;;
8791;SDS011;4432;50.890;4.744;2022-07-01T12:24:05;1.83;;;1.20;;
8791;SDS011;4432;50.890;4.744;2022-07-01T12:26:31;4.53;;;1.20;;
8791;SDS011;4432;50.890;4.744;2022-07-01T12:28:57;1.10;;;1.00;;
8791;SDS011;4432;50.890;4.744;2022-07-01T12:31:23;1.20;;;1.10;;
8791;SDS011;4432;50.890;4.744;2022-07-01T12:33:49;3.43;;;1.00;;
8791;SDS011;4432;50.890;4.744;2022-07-01T12:36:15;1.77;;;1.30;;
8791;SDS011;4432;50.890;4.744;2022-07-01T12:38:41;1.47;;;1.23;;
8791;SDS011;4432;50.890;4.744;2022-07-01T12:41:30;1.30;;;1.10;;
8791;SDS011;4432;50.890;4.744;2022-07-01T12:44:04;1.13;;;0.90;;
8791;SDS011;4432;50.890;4.744;2022-07-01T12:46:31;1.23;;;1.13;;
8791;SDS011;4432;50.890;4.744;2022-07-01T12:48:58;10.83;;;1.20;;
8791;SDS011;4432;50.890;4.744;2022-07-01T12:51:33;3.03;;;0.87;;
8791;SDS011;4432;50.890;4.744;2022-07-01T12:53:59;0.93;;;0.83;;
8791;SDS011;4432;50.890;4.744;2022-07-01T12:56:26;1.57;;;1.00;;
8791;SDS011;4432;50.890;4.744;2022-07-01T12:58:54;0.83;;;0.83;;
8791;SDS011;4432;50.890;4.744;2022-07-01T13:01:20;0.80;;;0.80;;
8791;SDS011;4432;50.890;4.744;2022-07-01T13:03:46;0.70;;;0.70;;
8791;SDS011;4432;50.890;4.744;2022-07-01T13:06:13;4.90;;;0.90;;
8791;SDS011;4432;50.890;4.744;2022-07-01T13:08:39;0.90;;;0.90;;
8791;SDS011;4432;50.890;4.744;2022-07-01T13:11:04;1.00;;;1.00;;
8791;SDS011;4432;50.890;4.744;2022-07-01T13:13:33;1.90;;;0.90;;
8791;SDS011;4432;50.890;4.744;2022-07-01T13:15:59;0.80;;;0.80;;
8791;SDS011;4432;50.890;4.744;2022-07-01T13:18:25;0.60;;;0.60;;
8791;SDS011;4432;50.890;4.744;2022-07-01T13:20:51;1.07;;;0.90;;
8791;SDS011;4432;50.890;4.744;2022-07-01T13:23:17;3.30;;;0.83;;
8791;SDS011;4432;50.890;4.744;2022-07-01T13:25:43;1.33;;;0.80;;
8791;SDS011;4432;50.890;4.744;2022-07-01T13:28:09;1.40;;;0.77;;
8791;SDS011;4432;50.890;4.744;2022-07-01T13:30:34;0.67;;;0.67;;
8791;SDS011;4432;50.890;4.744;2022-07-01T13:33:01;2.03;;;0.90;;
8791;SDS011;4432;50.890;4.744;2022-07-01T13:35:27;1.27;;;1.17;;
8791;SDS011;4432;50.890;4.744;2022-07-01T13:37:53;0.80;;;0.80;;
8791;SDS011;4432;50.890;4.744;2022-07-01T13:40:19;4.53;;;0.73;;
8791;SDS011;4432;50.890;4.744;2022-07-01T13:42:47;3.10;;;0.80;;
8791;SDS011;4432;50.890;4.744;2022-07-01T13:45:13;0.80;;;0.73;;
8791;SDS011;4432;50.890;4.744;2022-07-01T13:47:38;0.50;;;0.50;;
8791;SDS011;4432;50.890;4.744;2022-07-01T13:50:04;0.73;;;0.53;;
8791;SDS011;4432;50.890;4.744;2022-07-01T13:52:31;0.53;;;0.53;;
8791;SDS011;4432;50.890;4.744;2022-07-01T13:54:57;0.77;;;0.70;;
8791;SDS011;4432;50.890;4.744;2022-07-01T13:57:23;3.23;;;0.57;;
8791;SDS011;4432;50.890;4.744;2022-07-01T13:59:50;1.03;;;0.60;;
8791;SDS011;4432;50.890;4.744;2022-07-01T14:02:17;0.70;;;0.70;;
8791;SDS011;4432;50.890;4.744;2022-07-01T14:04:44;4.47;;;0.70;;
8791;SDS011;4432;50.890;4.744;2022-07-01T14:07:11;1.97;;;0.77;;
8791;SDS011;4432;50.890;4.744;2022-07-01T14:09:37;0.70;;;0.70;;
8791;SDS011;4432;50.890;4.744;2022-07-01T14:12:03;2.33;;;0.70;;
8791;SDS011;4432;50.890;4.744;2022-07-01T14:14:29;0.80;;;0.57;;
8791;SDS011;4432;50.890;4.744;2022-07-01T14:16:55;0.50;;;0.50;;
8791;SDS011;4432;50.890;4.744;2022-07-01T14:19:21;1.83;;;0.80;;
8791;SDS011;4432;50.890;4.744;2022-07-01T14:21:47;0.50;;;0.50;;
8791;SDS011;4432;50.890;4.744;2022-07-01T14:24:12;4.23;;;0.70;;
8791;SDS011;4432;50.890;4.744;2022-07-01T14:26:38;0.70;;;0.70;;
8791;SDS011;4432;50.890;4.744;2022-07-01T14:29:04;0.77;;;0.63;;
8791;SDS011;4432;50.890;4.744;2022-07-01T14:31:30;1.90;;;0.63;;
8791;SDS011;4432;50.890;4.744;2022-07-01T14:33:55;0.57;;;0.57;;
8791;SDS011;4432;50.890;4.744;2022-07-01T14:36:21;1.27;;;0.60;;
8791;SDS011;4432;50.890;4.744;2022-07-01T14:38:47;0.50;;;0.50;;
8791;SDS011;4432;50.890;4.744;2022-07-01T14:41:13;0.57;;;0.57;;
8791;SDS011;4432;50.890;4.744;2022-07-01T14:43:38;0.60;;;0.50;;
8791;SDS011;4432;50.890;4.744;2022-07-01T14:46:04;0.80;;;0.80;;
8791;SDS011;4432;50.890;4.744;2022-07-01T14:48:34;0.70;;;0.60;;
8791;SDS011;4432;50.890;4.744;2022-07-01T14:51:01;0.60;;;0.60;;
8791;SDS011;4432;50.890;4.744;2022-07-01T14:53:26;1.63;;;0.87;;
8791;SDS011;4432;50.890;4.744;2022-07-01T14:55:53;1.13;;;0.90;;
8791;SDS011;4432;50.890;4.744;2022-07-01T14:58:19;2.97;;;0.80;;
8791;SDS011;4432;50.890;4.744;2022-07-01T15:00:45;0.67;;;0.57;;
8791;SDS011;4432;50.890;4.744;2022-07-01T15:03:11;0.70;;;0.70;;
8791;SDS011;4432;50.890;4.744;2022-07-01T15:05:37;4.57;;;0.70;;
8791;SDS011;4432;50.890;4.744;2022-07-01T15:08:03;2.53;;;1.00;;
8791;SDS011;4432;50.890;4.744;2022-07-01T15:10:29;1.20;;;0.60;;
8791;SDS011;4432;50.890;4.744;2022-07-01T15:12:54;0.97;;;0.70;;
8791;SDS011;4432;50.890;4.744;2022-07-01T15:15:20;1.63;;;0.70;;
8791;SDS011;4432;50.890;4.744;2022-07-01T15:17:46;0.90;;;0.63;;
8791;SDS011;4432;50.890;4.744;2022-07-01T15:20:12;4.23;;;0.70;;
8791;SDS011;4432;50.890;4.744;2022-07-01T15:22:39;0.63;;;0.60;;
8791;SDS011;4432;50.890;4.744;2022-07-01T15:25:06;0.70;;;0.70;;
8791;SDS011;4432;50.890;4.744;2022-07-01T15:27:32;1.13;;;0.70;;
8791;SDS011;4432;50.890;4.744;2022-07-01T15:29:58;0.87;;;0.67;;
8791;SDS011;4432;50.890;4.744;2022-07-01T15:32:23;1.27;;;0.80;;